Kezdőlap
METAR-TAF:

METAR-TAF

Repülőterek :

Mikkeli, Finnország

földrajzi szélesség: 61-44N, földrajzi hosszúság: 027-18E, magasság: 138 m

Jelenlegi meteorológiai megfigyelések

A jelentés 21 perccel ezelõtt készült, 13:20 UTC
Keleti szél 3 kt
Hőmérséklet 3°C
Páratartalom 93%
Légköri nyomás 1025 hPa
Látótávolság 10 km, vagy több
Borult 700 lábon

METAR: EFMI 311320Z AUTO 08003KT 9999 OVC007 03/02 Q1025

Idő: 15:41 (13:41 UTC)


TAF: hiányzik

Meteorológiai megfigyelések és előrejelzések több, mint 4000 repülőtéren (METAR és TAF jelentéseket).

A térképen piros és sárga pontok jelzik az elérhető meteorológiai állomásokat.

Mozgassa az egeret a pont fölött, hogy megjelenjen az állomás neve.

Azután kattintson az időjárási megfigyelések és előrejelzések megtekintéséhez.

A térkép megváltoztatása: kattintson a fekete keresztel jelölt zöld gombra ráközelítéshez, a vonallal jelölt zöld gombra távolításhoz, vagy a zöld nyilakra a szomszédos térképek eléréséhez.


METAR-TAF: